Chobham, United Kingdom
Current Conditions -  °F | °C
As of 5:50 AM on Sunday 23 Nov 2014 (Local Time) from EGLL Reporting Station
Light Rain Light Rain  
Wind Chill: 50°   Ceiling: Unl
Heat Index: 50°   Visibility: 6mi
Dew Point: 48°   Wind: 6mph
Humidity: 94%   Direction: 330°NNW
Pressure: 29.97"   Gusts: NA
Location:  51.35°N, 0.6°W
Report Text: EGLL 230550Z 33005KT 300V010 9000 -RA FEW008 SCT020 10/09 Q1015 RERA
Loading
Personal Weather Stations






























Interactive Weather Map New forecast layout! Learn more

10-Day Weather Forecast

Advertisements
Track Severe Weather on mobile